createdAt,value
2019-02-06T00:01:48.963Z,0.00
2019-02-06T00:02:49.192Z,0.00
2019-02-06T00:04:53.356Z,0.00
2019-02-06T00:05:53.592Z,0.00
2019-02-06T00:07:57.756Z,0.00
2019-02-06T00:08:57.989Z,0.00
2019-02-06T00:11:02.141Z,0.00
2019-02-06T00:12:02.365Z,0.00
2019-02-06T00:14:06.537Z,0.00
2019-02-06T00:15:06.793Z,0.00
2019-02-06T00:16:59.871Z,0.00
2019-02-06T00:18:00.076Z,0.00
2019-02-06T00:20:04.243Z,0.09
2019-02-06T00:21:04.479Z,0.00
2019-02-06T00:23:08.644Z,0.00
2019-02-06T00:24:08.877Z,0.00
2019-02-06T00:26:13.027Z,0.00
2019-02-06T00:27:13.258Z,0.00
2019-02-06T00:29:17.425Z,0.00
2019-02-06T00:30:17.658Z,0.00
2019-02-06T00:32:21.809Z,0.00
2019-02-06T00:33:22.034Z,0.00
2019-02-06T00:35:26.274Z,0.00
2019-02-06T00:36:26.446Z,0.00
2019-02-06T00:38:30.609Z,0.47
2019-02-06T00:39:30.845Z,1.32
2019-02-06T00:41:34.991Z,2.93
2019-02-06T00:42:35.220Z,2.17
2019-02-06T00:44:39.386Z,0.66
2019-02-06T00:45:39.619Z,0.94
2019-02-06T00:47:43.763Z,1.89
2019-02-06T00:48:43.995Z,2.74
2019-02-06T00:50:48.164Z,5.39
2019-02-06T00:51:48.400Z,6.99
2019-02-06T00:53:52.575Z,3.49
2019-02-06T00:54:52.809Z,0.00
2019-02-06T00:56:46.895Z,0.00
2019-02-06T00:57:47.131Z,0.00
2019-02-06T00:59:51.304Z,0.00
2019-02-06T01:00:51.540Z,0.00
2019-02-06T01:02:55.689Z,0.00
2019-02-06T01:03:56.027Z,0.00
2019-02-06T01:06:00.099Z,0.00
2019-02-06T01:07:00.333Z,0.00
2019-02-06T01:09:04.479Z,0.00
2019-02-06T01:10:04.718Z,0.00
2019-02-06T01:12:08.885Z,0.00
2019-02-06T01:13:09.195Z,0.00
2019-02-06T01:15:13.306Z,0.00
2019-02-06T01:16:13.529Z,0.00
2019-02-06T01:18:17.679Z,0.00
2019-02-06T01:19:17.911Z,0.00
2019-02-06T01:21:22.074Z,0.00
2019-02-06T01:22:22.304Z,0.00
2019-02-06T01:24:26.458Z,0.00
2019-02-06T01:25:26.688Z,0.00
2019-02-06T01:27:19.785Z,0.00
2019-02-06T01:28:20.018Z,0.00
2019-02-06T01:30:24.184Z,0.00
2019-02-06T01:31:24.413Z,0.00
2019-02-06T01:33:28.564Z,0.00
2019-02-06T01:34:28.803Z,0.00
2019-02-06T01:36:32.965Z,0.00
2019-02-06T01:37:33.195Z,0.00
2019-02-06T01:39:37.339Z,0.00
2019-02-06T01:40:37.571Z,0.00
2019-02-06T01:42:41.734Z,0.00
2019-02-06T01:43:41.964Z,0.00
2019-02-06T01:45:46.141Z,0.00
2019-02-06T01:46:46.363Z,0.00
2019-02-06T01:48:50.518Z,0.00
2019-02-06T01:49:50.748Z,0.00
2019-02-06T01:51:54.913Z,0.00
2019-02-06T01:52:55.142Z,0.00
2019-02-06T01:54:59.286Z,0.00
2019-02-06T01:55:59.519Z,0.00
2019-02-06T01:58:03.687Z,0.00
2019-02-06T01:59:03.910Z,0.00
2019-02-06T02:01:08.243Z,0.00
2019-02-06T02:02:08.245Z,0.00
2019-02-06T02:04:12.397Z,0.00
2019-02-06T02:05:12.634Z,0.00
2019-02-06T02:07:05.714Z,0.00
2019-02-06T02:08:05.944Z,0.00
2019-02-06T02:10:10.099Z,0.00
2019-02-06T02:11:10.319Z,0.00
2019-02-06T02:13:14.482Z,0.00
2019-02-06T02:14:14.716Z,0.00
2019-02-06T02:16:18.884Z,0.00
2019-02-06T02:17:19.114Z,0.00
2019-02-06T02:19:23.292Z,0.00
2019-02-06T02:20:23.521Z,0.00
2019-02-06T02:22:27.692Z,0.00
2019-02-06T02:23:27.939Z,0.00
2019-02-06T02:25:32.072Z,0.00
2019-02-06T02:26:32.306Z,0.00
2019-02-06T02:28:36.507Z,0.00
2019-02-06T02:29:36.707Z,0.00
2019-02-06T02:31:40.856Z,0.00
2019-02-06T02:32:41.090Z,0.00
2019-02-06T02:34:45.277Z,0.00
2019-02-06T02:35:45.493Z,0.00
2019-02-06T02:37:49.664Z,0.00
2019-02-06T02:38:49.896Z,0.00
2019-02-06T02:40:54.039Z,0.00
2019-02-06T02:41:54.304Z,0.00
2019-02-06T02:43:58.444Z,0.00
2019-02-06T02:44:58.679Z,0.00
2019-02-06T02:46:51.750Z,0.00
2019-02-06T02:47:51.978Z,0.00
2019-02-06T02:49:56.150Z,0.00
2019-02-06T02:50:56.381Z,0.00
2019-02-06T02:53:00.548Z,0.00
2019-02-06T02:54:00.784Z,0.00
2019-02-06T02:56:04.930Z,0.00
2019-02-06T02:57:05.171Z,0.00
2019-02-06T02:59:09.463Z,0.00
2019-02-06T03:00:09.569Z,0.00
2019-02-06T03:02:13.720Z,0.00
2019-02-06T03:03:13.947Z,0.00
2019-02-06T03:05:18.121Z,0.00
2019-02-06T03:06:27.700Z,0.00
2019-02-06T03:08:22.506Z,0.00
2019-02-06T03:09:22.740Z,0.00
2019-02-06T03:11:26.876Z,0.00
2019-02-06T03:12:27.111Z,0.00
2019-02-06T03:14:31.273Z,0.00
2019-02-06T03:15:31.499Z,0.00
2019-02-06T03:17:24.570Z,0.00
2019-02-06T03:18:24.802Z,0.00
2019-02-06T03:20:28.972Z,0.00
2019-02-06T03:21:29.198Z,0.00
2019-02-06T03:23:40.892Z,0.00
2019-02-06T03:24:33.550Z,0.00
2019-02-06T03:26:37.692Z,0.00
2019-02-06T03:27:37.935Z,0.00
2019-02-06T03:29:42.087Z,0.00
2019-02-06T03:30:42.319Z,0.00
2019-02-06T03:32:46.479Z,0.00
2019-02-06T03:33:46.686Z,0.00
2019-02-06T03:35:50.847Z,0.00
2019-02-06T03:36:51.254Z,0.00
2019-02-06T03:38:55.241Z,0.00
2019-02-06T03:39:55.445Z,0.00
2019-02-06T03:41:59.605Z,0.00
2019-02-06T03:42:59.872Z,0.00
2019-02-06T03:45:04.031Z,0.00
2019-02-06T03:46:04.251Z,0.00
2019-02-06T03:48:08.376Z,0.00
2019-02-06T03:49:08.612Z,0.00
2019-02-06T03:51:12.781Z,0.00
2019-02-06T03:52:13.012Z,0.00
2019-02-06T03:54:17.459Z,0.00
2019-02-06T03:55:17.464Z,0.00
2019-02-06T03:57:10.532Z,0.00
2019-02-06T03:58:10.779Z,0.00
2019-02-06T04:00:14.933Z,0.00
2019-02-06T04:01:15.165Z,0.00
2019-02-06T04:03:19.303Z,0.00
2019-02-06T04:04:19.550Z,0.00
2019-02-06T04:06:23.704Z,0.00
2019-02-06T04:07:23.941Z,0.00
2019-02-06T04:09:28.093Z,0.00
2019-02-06T04:10:28.313Z,0.00
2019-02-06T04:12:32.477Z,0.00
2019-02-06T04:13:32.708Z,0.00
2019-02-06T04:15:36.869Z,0.00
2019-02-06T04:16:37.094Z,0.00
2019-02-06T04:18:41.237Z,0.00
2019-02-06T04:19:41.460Z,0.00
2019-02-06T04:21:45.641Z,0.00
2019-02-06T04:22:45.863Z,0.00
2019-02-06T04:24:51.750Z,1.51
2019-02-06T04:25:50.244Z,1.89
2019-02-06T04:27:54.391Z,2.36
2019-02-06T04:28:54.643Z,2.64
2019-02-06T04:30:58.794Z,3.30
2019-02-06T04:31:59.023Z,2.74
2019-02-06T04:34:03.197Z,1.32
2019-02-06T04:35:03.399Z,0.00
2019-02-06T04:37:06.248Z,0.00
2019-02-06T04:37:56.722Z,0.00
2019-02-06T04:40:00.873Z,0.00
2019-02-06T04:41:01.102Z,0.00
2019-02-06T04:43:05.263Z,0.00
2019-02-06T04:44:05.496Z,0.00
2019-02-06T04:46:09.679Z,0.00
2019-02-06T04:47:09.909Z,0.00
2019-02-06T04:49:15.058Z,0.00
2019-02-06T04:50:15.284Z,0.00
2019-02-06T04:52:19.455Z,0.00
2019-02-06T04:53:19.693Z,0.00
2019-02-06T04:55:23.871Z,0.00
2019-02-06T04:56:24.084Z,0.00
2019-02-06T04:58:28.234Z,0.00
2019-02-06T04:59:28.474Z,0.00
2019-02-06T05:01:32.933Z,0.37
2019-02-06T05:02:32.816Z,1.23
2019-02-06T05:04:36.964Z,1.79
2019-02-06T05:05:37.205Z,2.26
2019-02-06T05:07:41.360Z,2.55
2019-02-06T05:08:41.590Z,2.74
2019-02-06T05:10:45.753Z,2.55
2019-02-06T05:11:45.988Z,1.89
2019-02-06T05:13:50.136Z,2.55
2019-02-06T05:14:50.364Z,3.97
2019-02-06T05:16:43.453Z,3.69
2019-02-06T05:17:43.685Z,4.82
2019-02-06T05:19:47.827Z,2.55
2019-02-06T05:20:48.094Z,1.70
2019-02-06T05:22:52.213Z,2.17
2019-02-06T05:23:52.431Z,2.74
2019-02-06T05:25:56.623Z,2.17
2019-02-06T05:26:56.836Z,2.64
2019-02-06T05:29:00.979Z,2.74
2019-02-06T05:30:01.210Z,3.12
2019-02-06T05:32:06.384Z,5.29
2019-02-06T05:33:06.619Z,4.06
2019-02-06T05:35:10.771Z,5.76
2019-02-06T05:36:11.003Z,2.83
2019-02-06T05:38:15.169Z,3.97
2019-02-06T05:39:15.398Z,4.91
2019-02-06T05:41:19.561Z,5.19
2019-02-06T05:42:19.791Z,2.93
2019-02-06T05:44:23.934Z,6.61
2019-02-06T05:45:24.171Z,4.25
2019-02-06T05:47:17.255Z,1.23
2019-02-06T05:48:17.505Z,1.42
2019-02-06T05:50:21.630Z,0.85
2019-02-06T05:51:21.865Z,0.85
2019-02-06T05:53:26.021Z,2.36
2019-02-06T05:54:26.270Z,2.93
2019-02-06T05:56:30.442Z,2.45
2019-02-06T05:57:30.653Z,3.11
2019-02-06T05:59:34.784Z,3.02
2019-02-06T06:00:35.038Z,2.74
2019-02-06T06:02:39.191Z,2.93
2019-02-06T06:03:39.406Z,3.40
2019-02-06T06:05:43.549Z,4.72
2019-02-06T06:06:43.781Z,5.10
2019-02-06T06:08:47.935Z,3.40
2019-02-06T06:09:48.166Z,2.17
2019-02-06T06:11:52.333Z,0.75
2019-02-06T06:12:52.551Z,2.74
2019-02-06T06:14:56.704Z,3.97
2019-02-06T06:15:56.933Z,3.97
2019-02-06T06:18:01.140Z,2.36
2019-02-06T06:19:01.348Z,1.70
2019-02-06T06:21:05.491Z,2.45
2019-02-06T06:22:05.727Z,2.36
2019-02-06T06:24:10.399Z,3.49
2019-02-06T06:25:10.630Z,4.91
2019-02-06T06:27:04.216Z,7.46
2019-02-06T06:28:04.458Z,4.82
2019-02-06T06:30:09.101Z,3.11
2019-02-06T06:31:09.367Z,3.21
2019-02-06T06:33:15.021Z,3.21
2019-02-06T06:34:15.258Z,3.49
2019-02-06T06:36:19.420Z,3.02
2019-02-06T06:37:19.653Z,3.97
2019-02-06T06:39:24.337Z,2.93
2019-02-06T06:40:24.573Z,2.64
2019-02-06T06:42:29.275Z,2.36
2019-02-06T06:43:29.468Z,2.26
2019-02-06T06:45:34.116Z,2.45
2019-02-06T06:46:34.356Z,2.64
2019-02-06T06:48:39.011Z,2.55
2019-02-06T06:49:39.258Z,2.83
2019-02-06T06:51:43.919Z,0.00
2019-02-06T06:52:44.118Z,0.00
2019-02-06T06:54:48.814Z,0.00
2019-02-06T06:55:49.014Z,0.00
2019-02-06T06:57:53.730Z,0.85
2019-02-06T06:58:53.922Z,4.91
2019-02-06T07:00:58.620Z,7.37
2019-02-06T07:01:58.803Z,2.17
2019-02-06T07:04:02.985Z,0.66
2019-02-06T07:05:05.579Z,0.00
2019-02-06T07:06:56.799Z,1.04
2019-02-06T07:08:08.830Z,1.32
2019-02-06T07:10:01.706Z,3.11
2019-02-06T07:11:01.986Z,3.97
2019-02-06T07:13:07.569Z,5.29
2019-02-06T07:14:07.802Z,4.91
2019-02-06T07:16:12.444Z,5.48
2019-02-06T07:17:12.673Z,6.23
2019-02-06T07:19:17.349Z,8.31
2019-02-06T07:20:17.564Z,8.69
2019-02-06T07:22:22.228Z,8.60
2019-02-06T07:23:22.443Z,9.07
2019-02-06T07:25:27.110Z,9.54
2019-02-06T07:26:27.343Z,9.73
2019-02-06T07:28:32.025Z,8.60
2019-02-06T07:29:32.231Z,7.84
2019-02-06T07:31:36.907Z,9.07
2019-02-06T07:32:37.110Z,9.26
2019-02-06T07:34:41.793Z,9.83
2019-02-06T07:35:42.013Z,9.73
2019-02-06T07:37:46.664Z,10.30
2019-02-06T07:38:46.882Z,11.05
2019-02-06T07:40:51.553Z,12.57
2019-02-06T07:41:51.785Z,12.48
2019-02-06T07:43:56.497Z,14.28
2019-02-06T07:44:56.707Z,14.65
2019-02-06T07:46:50.252Z,17.87
2019-02-06T07:47:50.482Z,18.06
2019-02-06T07:49:55.151Z,20.32
2019-02-06T07:50:55.379Z,21.18
2019-02-06T07:53:00.021Z,25.71
2019-02-06T07:54:00.304Z,25.43
2019-02-06T07:56:04.926Z,18.62
2019-02-06T07:57:05.164Z,17.02
2019-02-06T07:59:09.846Z,18.43
2019-02-06T08:00:10.061Z,18.06
2019-02-06T08:02:14.721Z,22.31
2019-02-06T08:03:14.943Z,23.83
2019-02-06T08:05:19.623Z,30.08
2019-02-06T08:06:19.839Z,31.67
2019-02-06T08:08:35.263Z,37.37
2019-02-06T08:09:24.713Z,39.45
2019-02-06T08:11:29.396Z,42.38
2019-02-06T08:12:29.627Z,46.45
2019-02-06T08:14:34.289Z,48.46
2019-02-06T08:15:34.511Z,53.09
2019-02-06T08:17:39.178Z,55.75
2019-02-06T08:18:39.394Z,60.38
2019-02-06T08:20:44.082Z,62.94
2019-02-06T08:21:44.311Z,64.55
2019-02-06T08:23:48.470Z,69.03
2019-02-06T08:24:48.691Z,71.40
2019-02-06T08:26:42.315Z,75.09
2019-02-06T08:27:42.531Z,78.79
2019-02-06T08:29:47.193Z,83.94
2019-02-06T08:30:47.420Z,88.59
2019-02-06T08:32:51.578Z,90.48
2019-02-06T08:33:51.814Z,91.43
2019-02-06T08:35:55.983Z,89.72
2019-02-06T08:36:56.217Z,91.71
2019-02-06T08:39:00.369Z,93.65
2019-02-06T08:40:00.599Z,93.65
2019-02-06T08:42:04.772Z,95.26
2019-02-06T08:43:05.006Z,94.89
2019-02-06T08:45:09.177Z,92.90
2019-02-06T08:46:09.411Z,92.14
2019-02-06T08:48:13.562Z,93.84
2019-02-06T08:49:13.796Z,96.69
2019-02-06T08:51:17.967Z,96.97
2019-02-06T08:52:18.202Z,96.41
2019-02-06T08:54:22.375Z,96.22
2019-02-06T08:55:22.612Z,97.16
2019-02-06T08:57:15.695Z,98.44
2019-02-06T08:58:15.928Z,99.99
2019-02-06T09:00:20.098Z,99.99
2019-02-06T09:01:20.333Z,99.99
2019-02-06T09:03:24.490Z,99.99
2019-02-06T09:04:24.730Z,99.99
2019-02-06T09:06:28.906Z,99.99
2019-02-06T09:07:29.145Z,99.99
2019-02-06T09:09:33.323Z,99.99
2019-02-06T09:10:33.554Z,99.99
2019-02-06T09:12:37.732Z,99.99
2019-02-06T09:13:37.969Z,99.99
2019-02-06T09:15:42.142Z,99.99
2019-02-06T09:16:42.381Z,99.99
2019-02-06T09:18:46.536Z,99.99
2019-02-06T09:19:46.773Z,99.99
2019-02-06T09:21:50.956Z,99.99
2019-02-06T09:22:51.196Z,99.99
2019-02-06T09:24:55.379Z,99.99
2019-02-06T09:25:57.547Z,99.99
2019-02-06T09:27:59.766Z,99.93
2019-02-06T09:29:00.008Z,99.99
2019-02-06T09:31:04.178Z,99.99
2019-02-06T09:32:04.418Z,99.99
2019-02-06T09:34:09.684Z,99.99
2019-02-06T09:35:08.814Z,99.99
2019-02-06T09:37:04.960Z,99.99
2019-02-06T09:38:02.157Z,99.99
2019-02-06T09:40:06.319Z,99.99
2019-02-06T09:41:06.558Z,99.99
2019-02-06T09:43:10.747Z,99.99
2019-02-06T09:44:10.985Z,99.99
2019-02-06T09:46:15.657Z,99.99
2019-02-06T09:47:15.890Z,99.99
2019-02-06T09:49:20.066Z,99.99
2019-02-06T09:50:20.289Z,99.99
2019-02-06T09:52:28.128Z,99.99
2019-02-06T09:53:24.709Z,99.99
2019-02-06T09:55:29.372Z,99.99
2019-02-06T09:56:29.637Z,99.99
2019-02-06T09:58:35.319Z,99.99
2019-02-06T09:59:35.525Z,99.99
2019-02-06T10:01:40.262Z,99.99
2019-02-06T10:02:40.458Z,99.99
2019-02-06T10:04:45.209Z,99.99
2019-02-06T10:05:45.382Z,99.99
2019-02-06T10:07:50.126Z,99.99
2019-02-06T10:08:50.303Z,99.99
2019-02-06T10:10:55.019Z,99.99
2019-02-06T10:11:55.281Z,99.99
2019-02-06T10:14:00.918Z,99.99
2019-02-06T10:15:01.124Z,99.99
2019-02-06T10:16:54.796Z,99.99
2019-02-06T10:17:55.010Z,99.99
2019-02-06T10:19:59.633Z,99.99
2019-02-06T10:20:59.991Z,99.99
2019-02-06T10:23:05.567Z,99.99
2019-02-06T10:24:05.766Z,99.99
2019-02-06T10:26:10.458Z,99.99
2019-02-06T10:27:10.653Z,99.99
2019-02-06T10:29:15.372Z,99.99
2019-02-06T10:30:15.650Z,99.99
2019-02-06T10:32:20.449Z,99.99
2019-02-06T10:33:20.678Z,99.99
2019-02-06T10:35:25.300Z,99.99
2019-02-06T10:36:25.550Z,99.99
2019-02-06T10:38:31.277Z,99.45
2019-02-06T10:39:34.748Z,99.99
2019-02-06T10:41:37.134Z,99.99
2019-02-06T10:42:37.367Z,99.99
2019-02-06T10:44:43.023Z,99.99
2019-02-06T10:45:43.279Z,98.46
2019-02-06T10:47:48.030Z,95.60
2019-02-06T10:48:48.180Z,96.41
2019-02-06T10:50:52.853Z,96.70
2019-02-06T10:51:53.062Z,89.84
2019-02-06T10:53:57.271Z,87.27
2019-02-06T10:54:57.494Z,83.55
2019-02-06T10:56:50.626Z,74.29
2019-02-06T10:57:50.824Z,73.68
2019-02-06T10:59:55.572Z,76.94
2019-02-06T11:00:55.754Z,77.30
2019-02-06T11:02:59.945Z,70.22
2019-02-06T11:04:00.185Z,70.57
2019-02-06T11:06:04.871Z,67.71
2019-02-06T11:07:08.009Z,66.94
2019-02-06T11:09:09.803Z,72.75
2019-02-06T11:10:10.041Z,72.60
2019-02-06T11:12:14.709Z,71.45
2019-02-06T11:13:14.956Z,74.26
2019-02-06T11:15:19.146Z,75.85
2019-02-06T11:16:19.383Z,74.18
2019-02-06T11:18:23.574Z,72.17
2019-02-06T11:19:23.822Z,71.64
2019-02-06T11:21:28.510Z,70.97
2019-02-06T11:22:28.730Z,70.63
2019-02-06T11:24:33.421Z,68.69
2019-02-06T11:25:33.664Z,70.31
2019-02-06T11:27:37.833Z,72.24
2019-02-06T11:28:38.079Z,74.16
2019-02-06T11:30:42.271Z,77.49
2019-02-06T11:31:42.560Z,80.15
2019-02-06T11:33:46.782Z,77.97
2019-02-06T11:34:46.981Z,76.73
2019-02-06T11:36:40.074Z,76.39
2019-02-06T11:37:40.318Z,74.67
2019-02-06T11:39:44.505Z,74.01
2019-02-06T11:40:44.776Z,74.37
2019-02-06T11:42:48.979Z,70.31
2019-02-06T11:43:49.225Z,70.56
2019-02-06T11:45:53.459Z,71.07
2019-02-06T11:46:53.700Z,70.69
2019-02-06T11:48:57.949Z,67.77
2019-02-06T11:49:58.247Z,66.53
2019-02-06T11:52:02.388Z,64.40
2019-02-06T11:53:02.630Z,63.13
2019-02-06T11:55:08.651Z,63.29
2019-02-06T11:56:07.060Z,63.96
2019-02-06T11:58:11.223Z,63.04
2019-02-06T11:59:11.473Z,62.81
2019-02-06T12:01:15.659Z,63.92
2019-02-06T12:02:15.901Z,64.18
2019-02-06T12:04:21.123Z,63.73
2019-02-06T12:05:21.425Z,63.39
2019-02-06T12:07:15.083Z,63.13
2019-02-06T12:08:15.521Z,62.37
2019-02-06T12:10:19.583Z,59.76
2019-02-06T12:11:19.880Z,58.45
2019-02-06T12:13:13.417Z,59.16
2019-02-06T12:14:13.666Z,59.47
2019-02-06T12:16:17.902Z,59.06
2019-02-06T12:17:18.558Z,58.70
2019-02-06T12:19:15.427Z,59.82
2019-02-06T12:20:15.740Z,59.31
2019-02-06T12:22:19.807Z,61.67
2019-02-06T12:23:31.628Z,61.96
2019-02-06T12:25:24.308Z,63.04
2019-02-06T12:26:24.603Z,61.89
2019-02-06T12:28:28.843Z,61.93
2019-02-06T12:29:29.055Z,64.28
2019-02-06T12:31:33.862Z,64.34
2019-02-06T12:32:34.085Z,62.78
2019-02-06T12:34:38.781Z,59.69
2019-02-06T12:35:39.028Z,58.73
2019-02-06T12:37:43.718Z,57.90
2019-02-06T12:38:53.086Z,56.67
2019-02-06T12:40:48.660Z,57.68
2019-02-06T12:41:48.951Z,57.94
2019-02-06T12:43:53.605Z,60.04
2019-02-06T12:44:53.894Z,60.30
2019-02-06T12:46:47.504Z,62.46
2019-02-06T12:47:47.801Z,63.23
2019-02-06T12:49:51.997Z,63.70
2019-02-06T12:50:52.331Z,63.16
2019-02-06T12:52:57.616Z,62.88
2019-02-06T12:53:57.151Z,62.52
2019-02-06T12:56:01.905Z,61.73
2019-02-06T12:57:02.159Z,61.86
2019-02-06T12:59:06.826Z,60.42
2019-02-06T13:00:07.067Z,61.00
2019-02-06T13:02:11.795Z,61.51
2019-02-06T13:03:12.056Z,61.92
2019-02-06T13:05:16.295Z,62.40
2019-02-06T13:06:16.524Z,62.40
2019-02-06T13:08:21.221Z,60.42
2019-02-06T13:09:21.454Z,61.92
2019-02-06T13:11:26.154Z,63.48
2019-02-06T13:12:27.408Z,60.42
2019-02-06T13:14:31.078Z,60.36
2019-02-06T13:15:31.359Z,59.41
2019-02-06T13:17:25.995Z,58.95
2019-02-06T13:18:26.290Z,58.10
2019-02-06T13:20:30.492Z,56.24
2019-02-06T13:21:30.740Z,54.36
2019-02-06T13:23:34.931Z,53.02
2019-02-06T13:24:35.179Z,53.94
2019-02-06T13:26:39.378Z,55.42
2019-02-06T13:27:39.699Z,55.13
2019-02-06T13:29:45.345Z,55.26
2019-02-06T13:30:45.629Z,55.90
2019-02-06T13:32:49.864Z,54.39
2019-02-06T13:33:50.102Z,54.14
2019-02-06T13:35:54.325Z,53.16
2019-02-06T13:36:54.572Z,53.73
2019-02-06T13:38:59.245Z,56.70
2019-02-06T13:39:59.490Z,57.75
2019-02-06T13:42:05.449Z,58.99
2019-02-06T13:43:03.971Z,58.36
2019-02-06T13:45:09.220Z,59.51
2019-02-06T13:46:09.479Z,59.41
2019-02-06T13:48:13.743Z,62.15
2019-02-06T13:49:13.913Z,62.15
2019-02-06T13:51:19.860Z,62.72
2019-02-06T13:52:19.929Z,61.86
2019-02-06T13:54:25.667Z,62.56
2019-02-06T13:55:25.862Z,62.08
2019-02-06T13:57:20.444Z,60.78
2019-02-06T13:58:20.792Z,58.68
2019-02-06T14:00:26.419Z,60.17
2019-02-06T14:01:26.621Z,60.55
2019-02-06T14:03:32.287Z,60.42
2019-02-06T14:04:32.523Z,59.12
2019-02-06T14:06:38.325Z,56.99
2019-02-06T14:07:38.466Z,57.14
2019-02-06T14:09:44.272Z,56.95
2019-02-06T14:10:44.451Z,56.54
2019-02-06T14:12:50.174Z,57.46
2019-02-06T14:13:50.348Z,57.18
2019-02-06T14:15:56.133Z,59.73
2019-02-06T14:16:56.282Z,61.10
2019-02-06T14:19:01.955Z,65.03
2019-02-06T14:20:02.189Z,67.26
2019-02-06T14:22:09.903Z,67.19
2019-02-06T14:23:08.283Z,67.99
2019-02-06T14:25:14.836Z,67.70
2019-02-06T14:26:15.077Z,66.11
2019-02-06T14:28:20.791Z,67.95
2019-02-06T14:29:20.944Z,69.04
2019-02-06T14:31:26.761Z,64.65
2019-02-06T14:32:26.912Z,67.47
2019-02-06T14:34:32.623Z,66.02
2019-02-06T14:35:32.801Z,66.62
2019-02-06T14:37:27.815Z,67.35
2019-02-06T14:38:27.627Z,66.69
2019-02-06T14:40:33.306Z,66.37
2019-02-06T14:41:33.550Z,68.30
2019-02-06T14:43:37.734Z,73.36
2019-02-06T14:44:37.979Z,74.69
2019-02-06T14:46:42.146Z,76.03
2019-02-06T14:47:42.389Z,76.97
2019-02-06T14:49:46.569Z,77.73
2019-02-06T14:50:49.426Z,78.27
2019-02-06T14:52:50.999Z,78.45
2019-02-06T14:53:51.253Z,79.31
2019-02-06T14:55:55.400Z,80.16
2019-02-06T14:56:55.639Z,80.21
2019-02-06T14:58:59.824Z,76.73
2019-02-06T15:00:00.258Z,75.87
2019-02-06T15:02:04.225Z,75.05
2019-02-06T15:03:04.465Z,73.53
2019-02-06T15:05:08.646Z,73.06
2019-02-06T15:06:08.887Z,73.25
2019-02-06T15:08:13.063Z,75.02
2019-02-06T15:09:13.301Z,76.12
2019-02-06T15:11:19.827Z,81.02
2019-02-06T15:12:17.701Z,82.54
2019-02-06T15:14:21.884Z,81.49
2019-02-06T15:15:22.126Z,80.74
2019-02-06T15:17:15.214Z,80.68
2019-02-06T15:18:15.488Z,80.40
2019-02-06T15:20:19.637Z,81.02
2019-02-06T15:21:19.876Z,81.12
2019-02-06T15:23:32.666Z,79.97
2019-02-06T15:24:24.396Z,79.35
2019-02-06T15:26:28.548Z,78.93
2019-02-06T15:27:28.786Z,79.97
2019-02-06T15:29:32.961Z,80.16
2019-02-06T15:30:34.197Z,80.55
2019-02-06T15:32:37.399Z,78.78
2019-02-06T15:33:37.626Z,77.36
2019-02-06T15:35:41.782Z,77.55
2019-02-06T15:36:42.024Z,77.73
2019-02-06T15:38:46.195Z,78.08
2019-02-06T15:39:46.439Z,78.83
2019-02-06T15:41:50.595Z,81.65
2019-02-06T15:42:50.834Z,83.92
2019-02-06T15:44:55.009Z,86.63
2019-02-06T15:45:57.941Z,89.00
2019-02-06T15:47:59.401Z,92.47
2019-02-06T15:48:59.640Z,93.70
2019-02-06T15:51:03.821Z,93.94
2019-02-06T15:52:04.959Z,94.51
2019-02-06T15:54:08.230Z,96.12
2019-02-06T15:55:08.487Z,96.83
2019-02-06T15:57:01.551Z,99.87
2019-02-06T15:58:01.790Z,99.99
2019-02-06T16:00:05.960Z,99.99
2019-02-06T16:01:06.199Z,99.99
2019-02-06T16:03:10.345Z,99.99
2019-02-06T16:04:10.581Z,99.99
2019-02-06T16:06:14.760Z,99.99
2019-02-06T16:07:14.998Z,99.99
2019-02-06T16:09:19.174Z,99.99
2019-02-06T16:10:19.430Z,99.99
2019-02-06T16:12:24.097Z,99.99
2019-02-06T16:13:24.336Z,99.99
2019-02-06T16:15:29.005Z,99.99
2019-02-06T16:16:29.243Z,99.99
2019-02-06T16:18:33.403Z,99.99
2019-02-06T16:19:33.640Z,99.99
2019-02-06T16:21:37.823Z,99.99
2019-02-06T16:22:38.061Z,99.99
2019-02-06T16:24:42.746Z,99.99
2019-02-06T16:25:42.971Z,99.99
2019-02-06T16:27:47.123Z,99.99
2019-02-06T16:28:47.353Z,99.99
2019-02-06T16:30:52.022Z,99.99
2019-02-06T16:31:52.255Z,99.99
2019-02-06T16:33:56.911Z,99.99
2019-02-06T16:34:57.145Z,99.99
2019-02-06T16:36:52.736Z,99.99
2019-02-06T16:37:52.796Z,99.99
2019-02-06T16:39:58.241Z,99.99
2019-02-06T16:40:58.369Z,99.99
2019-02-06T16:43:05.309Z,99.99
2019-02-06T16:44:04.503Z,99.99
2019-02-06T16:46:11.686Z,99.99
2019-02-06T16:47:10.367Z,99.99
2019-02-06T16:49:17.928Z,99.99
2019-02-06T16:50:16.230Z,99.99
2019-02-06T16:52:21.907Z,99.99
2019-02-06T16:53:22.125Z,99.99
2019-02-06T16:55:27.803Z,99.99
2019-02-06T16:56:28.126Z,99.99
2019-02-06T16:58:35.105Z,99.99
2019-02-06T16:59:33.909Z,99.99
2019-02-06T17:01:39.576Z,99.99
2019-02-06T17:02:39.806Z,99.99
2019-02-06T17:04:45.471Z,99.99
2019-02-06T17:05:45.703Z,99.99
2019-02-06T17:07:51.351Z,99.99
2019-02-06T17:08:51.584Z,99.99
2019-02-06T17:10:57.247Z,99.19
2019-02-06T17:12:04.194Z,98.44
2019-02-06T17:14:03.122Z,94.65
2019-02-06T17:15:03.354Z,95.50
2019-02-06T17:16:57.948Z,95.78
2019-02-06T17:17:58.184Z,96.45
2019-02-06T17:20:03.850Z,96.12
2019-02-06T17:21:04.086Z,95.36
2019-02-06T17:23:08.236Z,92.10
2019-02-06T17:24:08.583Z,90.34
2019-02-06T17:26:13.147Z,87.04
2019-02-06T17:27:13.381Z,86.18
2019-02-06T17:29:17.584Z,85.99
2019-02-06T17:30:18.010Z,86.37
2019-02-06T17:32:22.695Z,88.17
2019-02-06T17:33:23.009Z,85.05
2019-02-06T17:35:27.737Z,79.52
2019-02-06T17:36:28.059Z,76.02
2019-02-06T17:38:33.724Z,69.02
2019-02-06T17:39:33.979Z,67.32
2019-02-06T17:41:38.653Z,67.51
2019-02-06T17:42:38.890Z,67.89
2019-02-06T17:44:43.622Z,66.19
2019-02-06T17:45:43.958Z,63.82
2019-02-06T17:47:48.791Z,60.80
2019-02-06T17:48:49.023Z,60.14
2019-02-06T17:50:53.301Z,67.13
2019-02-06T17:51:53.570Z,69.53
2019-02-06T17:53:58.246Z,66.38
2019-02-06T17:54:59.661Z,68.87
2019-02-06T17:58:33.859Z,71.14
2019-02-06T17:59:34.144Z,72.37
2019-02-06T18:01:38.875Z,72.37
2019-02-06T18:02:39.136Z,72.94
2019-02-06T18:04:43.825Z,76.25
2019-02-06T18:05:44.195Z,77.67
2019-02-06T18:07:48.939Z,78.99
2019-02-06T18:08:56.425Z,79.56
2019-02-06T18:10:53.933Z,79.94
2019-02-06T18:11:54.193Z,80.13
2019-02-06T18:13:59.842Z,81.93
2019-02-06T18:15:00.104Z,83.53
2019-02-06T18:16:53.681Z,87.60
2019-02-06T18:17:53.914Z,87.13
2019-02-06T18:19:59.547Z,87.04
2019-02-06T18:20:59.784Z,88.64
2019-02-06T18:23:05.452Z,89.97
2019-02-06T18:24:05.719Z,90.91
2019-02-06T18:26:11.386Z,90.44
2019-02-06T18:27:11.616Z,89.97
2019-02-06T18:29:16.276Z,88.64
2019-02-06T18:30:16.502Z,88.45
2019-02-06T18:32:21.168Z,89.12
2019-02-06T18:33:21.405Z,90.72
2019-02-06T18:35:27.045Z,90.44
2019-02-06T18:36:27.290Z,89.87
2019-02-06T18:38:32.311Z,87.98
2019-02-06T18:39:32.231Z,87.70
2019-02-06T18:41:37.875Z,85.42
2019-02-06T18:42:38.110Z,84.58
2019-02-06T18:44:43.770Z,82.78
2019-02-06T18:45:44.002Z,82.21
2019-02-06T18:47:48.681Z,81.93
2019-02-06T18:48:48.915Z,76.44
2019-02-06T18:50:54.564Z,71.20
2019-02-06T18:51:54.791Z,70.82
2019-02-06T18:53:59.481Z,76.78
2019-02-06T18:54:59.721Z,78.48
2019-02-06T18:56:54.367Z,79.66
2019-02-06T18:57:54.570Z,82.12
2019-02-06T19:00:00.346Z,81.64
2019-02-06T19:01:00.459Z,81.74
2019-02-06T19:03:06.182Z,81.26
2019-02-06T19:04:06.465Z,82.59
2019-02-06T19:06:12.081Z,82.21
2019-02-06T19:07:12.300Z,82.59
2019-02-06T19:09:17.968Z,81.74
2019-02-06T19:10:18.206Z,81.55
2019-02-06T19:12:23.884Z,83.91
2019-02-06T19:13:24.157Z,84.39
2019-02-06T19:15:29.822Z,87.60
2019-02-06T19:16:30.043Z,87.98
2019-02-06T19:18:37.158Z,88.55
2019-02-06T19:19:34.951Z,90.25
2019-02-06T19:21:39.614Z,90.16
2019-02-06T19:22:39.850Z,89.97
2019-02-06T19:24:45.515Z,88.36
2019-02-06T19:25:45.751Z,87.79
2019-02-06T19:27:51.412Z,86.09
2019-02-06T19:28:51.645Z,85.42
2019-02-06T19:30:58.621Z,82.78
2019-02-06T19:31:58.546Z,82.31
2019-02-06T19:34:04.410Z,81.36
2019-02-06T19:35:04.445Z,80.51
2019-02-06T19:36:59.017Z,79.85
2019-02-06T19:37:59.268Z,79.05
2019-02-06T19:40:04.925Z,72.43
2019-02-06T19:41:05.158Z,68.27
2019-02-06T19:43:10.828Z,60.70
2019-02-06T19:44:11.492Z,55.79
2019-02-06T19:46:16.724Z,52.92
2019-02-06T19:47:16.959Z,56.45
2019-02-06T19:49:22.627Z,67.32
2019-02-06T19:50:22.859Z,68.46
2019-02-06T19:52:28.493Z,71.48
2019-02-06T19:53:28.729Z,74.88
2019-02-06T19:55:33.399Z,76.87
2019-02-06T19:56:33.634Z,76.78
2019-02-06T19:58:41.139Z,79.80
2019-02-06T19:59:39.527Z,79.80
2019-02-06T20:01:45.178Z,79.05